Time;durP1;ratioP1;P1;durP2;ratioP2;P2;SDS_P1;SDS_P2;PMS_P1;PMS_P2;Temp;Humidity;BMP_temperature;BMP_pressure;BME280_temperature;BME280_humidity;BME280_pressure;Samples;Min_cycle;Max_cycle;Signal;HPM_P1;HPM_P2
2022/10/12 00:00:12;;;;;;;33.25;18.58;;;;;;;14.67;71.41;96041.53;4970688;28;20033;-80
2022/10/12 00:02:39;;;;;;;28.77;17.75;;;;;;;14.69;71.13;96042.19;4988595;28;20022;-80
2022/10/12 00:05:05;;;;;;;25.27;17.13;;;;;;;14.74;70.88;96043.47;4971363;28;20072;-81
2022/10/12 00:07:30;;;;;;;27.15;17.10;;;;;;;14.83;71.05;96039.69;4988129;28;20437;-80
2022/10/12 00:09:56;;;;;;;28.92;17.95;;;;;;;14.87;71.24;96040.97;4988625;28;20034;-80
2022/10/12 00:12:21;;;;;;;37.75;19.67;;;;;;;14.91;71.20;96044.97;4987686;28;20022;-79
2022/10/12 00:14:47;;;;;;;29.60;17.65;;;;;;;14.88;71.30;96034.53;4988456;28;20027;-80
2022/10/12 00:17:12;;;;;;;27.15;18.30;;;;;;;14.86;71.50;96031.22;4988181;28;20425;-79
2022/10/12 00:19:37;;;;;;;29.90;18.48;;;;;;;14.82;71.20;96033.44;4988071;28;20030;-79
2022/10/12 00:22:03;;;;;;;29.23;17.70;;;;;;;14.74;71.67;96038.06;4970980;28;20054;-79
2022/10/12 00:24:28;;;;;;;26.05;17.00;;;;;;;14.68;71.70;96040.50;4954135;28;20022;-79
2022/10/12 00:26:54;;;;;;;26.55;17.85;;;;;;;14.64;71.56;96027.59;4988171;28;20030;-80
2022/10/12 00:29:19;;;;;;;26.50;17.20;;;;;;;14.76;71.47;96033.31;4987243;28;20446;-80
2022/10/12 00:31:45;;;;;;;24.45;16.17;;;;;;;14.80;70.93;96031.94;4970639;28;20543;-80
2022/10/12 00:34:10;;;;;;;24.02;16.48;;;;;;;14.78;70.62;96040.19;4987476;28;20026;-80
2022/10/12 00:36:36;;;;;;;23.88;16.23;;;;;;;14.71;70.71;96029.34;4954243;28;20410;-80
2022/10/12 00:39:03;;;;;;;22.40;15.43;;;;;;;14.62;71.16;96029.63;4970431;28;20026;-80
2022/10/12 00:41:30;;;;;;;26.65;15.45;;;;;;;14.56;71.40;96033.91;4954195;28;20041;-80
2022/10/12 00:43:56;;;;;;;28.33;16.38;;;;;;;14.64;71.55;96041.91;4970414;28;20045;-80
2022/10/12 00:46:38;;;;;;;28.27;18.27;;;;;;;14.61;71.84;96036.03;4970096;28;20042;-80
2022/10/12 00:49:14;;;;;;;26.25;17.73;;;;;;;14.67;71.75;96025.31;4954431;28;20034;-79
2022/10/12 00:51:40;;;;;;;27.70;17.75;;;;;;;14.73;71.43;96023.75;4950052;28;20134;-81
2022/10/12 00:54:06;;;;;;;30.90;17.27;;;;;;;14.74;71.32;96029.97;4951133;28;20027;-79
2022/10/12 00:56:33;;;;;;;31.00;18.38;;;;;;;14.73;71.23;96020.22;4966691;28;20062;-79
2022/10/12 00:58:59;;;;;;;25.65;18.00;;;;;;;14.71;71.08;96033.91;4967005;28;20030;-79
2022/10/12 01:01:25;;;;;;;27.73;18.30;;;;;;;14.68;70.53;96028.88;4951110;28;20023;-80
2022/10/12 01:03:50;;;;;;;25.80;17.58;;;;;;;14.70;70.54;96027.66;4966301;28;20033;-79
2022/10/12 01:06:15;;;;;;;30.45;18.85;;;;;;;14.69;70.86;96034.09;4967112;28;20031;-79
2022/10/12 01:08:41;;;;;;;27.33;17.98;;;;;;;14.64;70.76;96025.69;4966361;28;20027;-79
2022/10/12 01:11:06;;;;;;;27.85;17.95;;;;;;;14.65;70.79;96030.09;4966794;28;20034;-80
2022/10/12 01:13:32;;;;;;;30.45;18.90;;;;;;;14.65;70.46;96030.09;4966041;28;20039;-80
2022/10/12 01:16:19;;;;;;;26.48;17.60;;;;;;;14.68;70.32;96028.88;4966689;28;20406;-79
2022/10/12 01:18:55;;;;;;;26.23;17.42;;;;;;;14.66;70.67;96031.75;4966321;28;20058;-79
2022/10/12 01:21:21;;;;;;;29.33;18.65;;;;;;;14.71;70.70;96028.50;4951829;28;20037;-79
2022/10/12 01:24:02;;;;;;;25.80;16.90;;;;;;;14.70;71.04;96030.34;4950512;28;20031;-79
2022/10/12 01:26:42;;;;;;;30.67;17.98;;;;;;;14.74;70.83;96035.38;4967114;28;20188;-79
2022/10/12 01:29:40;;;;;;;30.17;18.33;;;;;;;14.69;70.89;96028.69;4968139;28;20155;-79
2022/10/12 01:32:12;;;;;;;28.80;16.83;;;;;;;14.69;70.35;96027.84;4952965;28;20037;-79
2022/10/12 01:34:47;;;;;;;26.60;17.42;;;;;;;14.58;70.91;96026.47;4949462;28;20035;-80
2022/10/12 01:37:27;;;;;;;26.42;18.13;;;;;;;14.68;70.74;96026.16;4966550;28;20027;-79
2022/10/12 01:39:53;;;;;;;28.88;17.38;;;;;;;14.68;70.89;96023.47;4966336;28;20509;-79
2022/10/12 01:42:27;;;;;;;25.63;16.58;;;;;;;14.64;71.40;96028.41;4950357;28;20025;-79
2022/10/12 01:45:04;;;;;;;27.08;16.63;;;;;;;14.60;70.87;96035.22;4950042;28;20117;-79
2022/10/12 01:47:29;;;;;;;26.00;16.88;;;;;;;14.62;70.44;96024.22;4933948;28;20073;-79
2022/10/12 01:49:54;;;;;;;32.42;18.40;;;;;;;14.63;70.82;96032.13;4934207;28;20027;-79
2022/10/12 01:52:30;;;;;;;26.23;17.20;;;;;;;14.65;70.70;96034.66;4949967;28;20469;-79
2022/10/12 01:55:29;;;;;;;26.45;17.08;;;;;;;14.65;70.61;96030.09;4949642;28;20086;-79
2022/10/12 01:58:13;;;;;;;26.38;16.73;;;;;;;14.63;70.96;96031.28;4967580;28;20030;-79
2022/10/12 02:00:46;;;;;;;28.48;16.55;;;;;;;14.63;70.81;96037.53;4967095;28;20223;-80
2022/10/12 02:03:26;;;;;;;25.17;16.55;;;;;;;14.61;71.25;96031.47;4950952;28;20062;-80
2022/10/12 02:06:02;;;;;;;30.08;17.25;;;;;;;14.61;71.41;96026.06;4949847;28;20035;-80
2022/10/12 02:08:36;;;;;;;30.58;19.65;;;;;;;14.65;71.39;96035.50;4967020;28;20044;-79
2022/10/12 02:11:09;;;;;;;27.25;18.00;;;;;;;14.61;71.52;96044.13;4965971;28;20105;-79
2022/10/12 02:14:05;;;;;;;23.35;16.42;;;;;;;14.62;70.83;96043.13;4965637;28;20023;-80
2022/10/12 02:16:34;;;;;;;32.03;18.27;;;;;;;14.54;71.14;96047.59;4929495;28;20413;-80
2022/10/12 02:19:00;;;;;;;24.67;16.67;;;;;;;14.55;70.98;96045.72;4949435;28;20513;-80
2022/10/12 02:21:30;;;;;;;27.67;17.30;;;;;;;14.46;71.27;96058.50;4965560;28;20042;-80
2022/10/12 02:24:00;;;;;;;25.63;17.15;;;;;;;14.52;71.34;96052.34;4949969;28;20097;-80
2022/10/12 02:26:25;;;;;;;24.58;16.60;;;;;;;14.55;71.56;96054.69;4949666;28;20118;-79
2022/10/12 02:28:51;;;;;;;26.05;16.58;;;;;;;14.57;71.81;96051.78;4949573;28;20027;-79
2022/10/12 02:31:31;;;;;;;25.92;16.67;;;;;;;14.53;71.97;96050.47;4965037;28;20038;-80
2022/10/12 02:34:01;;;;;;;23.15;16.35;;;;;;;14.39;71.89;96050.31;4966790;28;20041;-80
2022/10/12 02:36:47;;;;;;;25.60;15.77;;;;;;;14.31;72.04;96053.94;4949719;28;20313;-79
2022/10/12 02:39:15;;;;;;;24.95;15.23;;;;;;;14.41;71.42;96048.22;4970362;28;20126;-80
2022/10/12 02:41:45;;;;;;;23.77;14.90;;;;;;;14.37;71.37;96049.63;4953910;28;20039;-80
2022/10/12 02:44:11;;;;;;;26.63;15.13;;;;;;;14.33;70.95;96037.56;4953094;28;20035;-80
2022/10/12 02:46:37;;;;;;;21.35;14.60;;;;;;;14.46;70.77;96048.53;4953546;28;20134;-80
2022/10/12 02:49:03;;;;;;;21.40;14.00;;;;;;;14.41;70.55;96042.84;4952997;28;20042;-80
2022/10/12 02:51:28;;;;;;;23.40;12.82;;;;;;;14.41;70.44;96048.22;4969129;28;20035;-80
2022/10/12 02:53:54;;;;;;;21.38;14.07;;;;;;;14.43;70.29;96048.03;4969560;28;20026;-80
2022/10/12 02:56:19;;;;;;;24.60;14.52;;;;;;;14.50;70.14;96053.53;4952794;28;20093;-79
2022/10/12 02:58:45;;;;;;;25.55;14.52;;;;;;;14.49;70.47;96050.03;4970738;28;20501;-79
2022/10/12 03:01:10;;;;;;;22.13;13.55;;;;;;;14.46;70.46;96047.69;4968607;28;20122;-79
2022/10/12 03:03:36;;;;;;;20.38;13.20;;;;;;;14.51;70.33;96050.66;4969367;28;20544;-80
2022/10/12 03:06:01;;;;;;;18.90;13.52;;;;;;;14.43;70.16;96043.50;4968761;28;20034;-79
2022/10/12 03:08:27;;;;;;;23.25;12.98;;;;;;;14.42;70.20;96044.53;4968861;28;20031;-79
2022/10/12 03:10:52;;;;;;;20.50;14.35;;;;;;;14.51;69.95;96034.47;4968956;28;20019;-79
2022/10/12 03:13:18;;;;;;;21.15;14.02;;;;;;;14.61;70.15;96049.53;4970021;28;20026;-80
2022/10/12 03:15:43;;;;;;;22.70;15.25;;;;;;;14.59;70.25;96049.72;4969422;28;20026;-80
2022/10/12 03:18:09;;;;;;;20.42;14.82;;;;;;;14.61;70.61;96039.56;4970143;28;20098;-81
2022/10/12 03:20:34;;;;;;;24.70;15.68;;;;;;;14.59;70.46;96036.22;4968951;28;20046;-80
2022/10/12 03:23:00;;;;;;;26.45;15.43;;;;;;;14.59;70.38;96047.00;4969785;28;20031;-80
2022/10/12 03:25:25;;;;;;;19.85;14.88;;;;;;;14.51;70.48;96042.56;4969781;28;20030;-81
2022/10/12 03:27:50;;;;;;;24.73;15.38;;;;;;;14.51;70.42;96041.75;4970071;28;20034;-81
2022/10/12 03:30:16;;;;;;;25.95;16.50;;;;;;;14.50;70.56;96045.44;4969069;28;20042;-81
2022/10/12 03:32:41;;;;;;;26.45;16.70;;;;;;;14.48;70.67;96050.22;4970807;28;20027;-81
2022/10/12 03:35:07;;;;;;;22.83;15.20;;;;;;;14.46;70.73;96048.53;4970222;28;20027;-81
2022/10/12 03:37:33;;;;;;;23.77;15.38;;;;;;;14.46;70.76;96053.09;4968868;28;20027;-81
2022/10/12 03:39:58;;;;;;;25.10;16.75;;;;;;;14.40;71.16;96049.28;4970039;28;20034;-81
2022/10/12 03:42:24;;;;;;;26.40;16.70;;;;;;;14.40;71.06;96049.28;4969706;28;20035;-80
2022/10/12 03:44:49;;;;;;;23.48;16.10;;;;;;;14.39;71.29;96053.00;4967995;28;20027;-81
2022/10/12 03:47:15;;;;;;;23.77;15.65;;;;;;;14.41;71.08;96055.50;4952166;28;20038;-80
2022/10/12 03:49:42;;;;;;;25.42;16.20;;;;;;;14.37;71.28;96052.34;4970553;28;20027;-81
2022/10/12 03:52:07;;;;;;;27.88;16.73;;;;;;;14.36;71.25;96050.69;4969066;28;20051;-82
2022/10/12 03:54:33;;;;;;;26.38;17.48;;;;;;;14.31;71.29;96045.00;4969475;28;20026;-82
2022/10/12 03:56:58;;;;;;;29.70;18.00;;;;;;;14.30;71.30;96048.72;4969352;28;20030;-82
2022/10/12 03:59:23;;;;;;;24.67;16.63;;;;;;;14.30;71.23;96054.13;4952045;28;20371;-81
2022/10/12 04:01:49;;;;;;;28.70;17.80;;;;;;;14.28;71.70;96050.75;4969165;28;20023;-80
2022/10/12 04:04:14;;;;;;;27.20;17.45;;;;;;;14.24;71.97;96052.97;4967959;28;20097;-80
2022/10/12 04:06:40;;;;;;;26.33;16.92;;;;;;;14.26;71.89;96052.78;4968671;28;20117;-81
2022/10/12 04:09:05;;;;;;;26.88;17.02;;;;;;;14.30;71.80;96051.41;4968981;28;20116;-80
2022/10/12 04:11:31;;;;;;;26.55;17.05;;;;;;;14.29;71.82;96053.28;4968976;28;20376;-80
2022/10/12 04:13:56;;;;;;;26.95;17.52;;;;;;;14.27;71.93;96060.69;4967580;28;20034;-80
2022/10/12 04:16:21;;;;;;;34.50;18.00;;;;;;;14.25;71.96;96048.44;4969331;28;20030;-80
2022/10/12 04:18:47;;;;;;;30.80;18.80;;;;;;;14.23;71.86;96061.25;4968563;28;20030;-81
2022/10/12 04:21:13;;;;;;;28.00;18.02;;;;;;;14.20;71.75;96054.38;4969429;28;20061;-81
2022/10/12 04:23:39;;;;;;;30.63;18.92;;;;;;;14.09;72.13;96061.91;4950690;28;20172;-81
2022/10/12 04:26:04;;;;;;;29.33;19.17;;;;;;;14.15;71.65;96063.03;4951598;28;20569;-80
2022/10/12 04:28:30;;;;;;;28.70;18.55;;;;;;;14.19;71.17;96058.94;4950993;28;20022;-82
2022/10/12 04:30:55;;;;;;;28.30;18.23;;;;;;;14.20;71.38;96055.19;4967682;28;20023;-80
2022/10/12 04:33:21;;;;;;;28.02;17.90;;;;;;;14.23;71.20;96059.41;4967475;28;20038;-81
2022/10/12 04:35:46;;;;;;;32.10;18.60;;;;;;;14.21;71.57;96067.69;4968422;28;20019;-80
2022/10/12 04:38:12;;;;;;;31.58;19.48;;;;;;;14.25;71.15;96075.41;4968733;28;20038;-81
2022/10/12 04:40:37;;;;;;;33.70;19.33;;;;;;;14.26;71.46;96079.78;4968096;28;20023;-81
2022/10/12 04:43:03;;;;;;;31.35;19.42;;;;;;;14.25;71.04;96075.41;4967560;28;20038;-80
2022/10/12 04:45:28;;;;;;;31.05;18.77;;;;;;;14.27;71.06;96081.44;4967975;28;20122;-81
2022/10/12 04:47:54;;;;;;;29.60;18.35;;;;;;;14.24;70.96;96084.50;4968349;28;20065;-81
2022/10/12 04:50:20;;;;;;;31.17;19.30;;;;;;;14.23;71.12;96077.44;4967935;28;20410;-80
2022/10/12 04:52:46;;;;;;;30.13;18.73;;;;;;;14.25;71.08;96083.50;4970245;28;20422;-81
2022/10/12 04:55:11;;;;;;;32.42;19.90;;;;;;;14.19;71.22;96077.81;4987749;28;20026;-80
2022/10/12 04:57:37;;;;;;;31.83;19.80;;;;;;;14.20;71.32;96078.66;4969505;28;20023;-80
2022/10/12 05:00:03;;;;;;;37.17;20.60;;;;;;;14.20;71.19;96090.28;4969421;28;20041;-80
2022/10/12 05:02:28;;;;;;;29.75;18.75;;;;;;;14.20;71.10;96086.75;4970057;28;20401;-81
2022/10/12 05:04:54;;;;;;;30.75;18.65;;;;;;;14.18;71.19;96089.66;4969901;28;20682;-80
2022/10/12 05:07:19;;;;;;;32.72;19.33;;;;;;;14.21;71.09;96091.97;4987179;28;20033;-81
2022/10/12 05:09:45;;;;;;;28.17;18.63;;;;;;;14.21;71.22;96091.13;4987184;28;20410;-80
2022/10/12 05:12:10;;;;;;;30.90;18.55;;;;;;;14.26;71.23;96091.41;4970017;28;20179;-80
2022/10/12 05:14:35;;;;;;;31.23;18.55;;;;;;;14.18;72.01;96091.50;4987186;28;20041;-81
2022/10/12 05:17:01;;;;;;;30.65;19.58;;;;;;;14.17;72.15;96098.72;4987358;28;20409;-81
2022/10/12 05:19:26;;;;;;;29.08;18.65;;;;;;;14.11;72.40;96096.78;4986838;28;20405;-81
2022/10/12 05:21:53;;;;;;;32.05;19.23;;;;;;;14.08;72.58;96099.84;4987185;28;20421;-81
2022/10/12 05:24:18;;;;;;;30.08;18.75;;;;;;;14.15;72.66;96106.19;4969312;28;20031;-81
2022/10/12 05:26:44;;;;;;;24.17;17.83;;;;;;;14.23;72.11;96102.56;4969449;28;20088;-79
2022/10/12 05:29:09;;;;;;;30.73;18.60;;;;;;;14.27;71.33;96103.03;4986952;28;20533;-80
2022/10/12 05:31:35;;;;;;;28.70;17.80;;;;;;;14.26;71.27;96106.75;4986892;28;20580;-81
2022/10/12 05:34:00;;;;;;;28.15;18.30;;;;;;;14.27;70.85;96106.56;4937051;28;20042;-80
2022/10/12 05:36:26;;;;;;;28.98;17.77;;;;;;;14.26;71.21;96112.16;4969152;28;20532;-81
2022/10/12 05:38:51;;;;;;;28.38;18.50;;;;;;;14.19;71.44;96112.88;4986864;28;20488;-81
2022/10/12 05:41:17;;;;;;;27.48;18.80;;;;;;;14.09;71.90;96110.44;4953252;28;20023;-81
2022/10/12 05:43:42;;;;;;;27.85;18.10;;;;;;;14.09;72.41;96117.69;4969559;28;20072;-81
2022/10/12 05:46:07;;;;;;;28.58;17.60;;;;;;;14.21;72.07;96123.50;4952474;28;20034;-81
2022/10/12 05:48:33;;;;;;;28.60;18.80;;;;;;;14.20;71.96;96121.81;4969365;28;20034;-80
2022/10/12 05:50:58;;;;;;;34.10;18.98;;;;;;;14.18;72.15;96126.56;4986416;28;20075;-80
2022/10/12 05:53:24;;;;;;;34.45;19.38;;;;;;;14.21;72.34;96127.03;4986687;28;20085;-80
2022/10/12 05:55:56;;;;;;;32.75;19.50;;;;;;;14.21;72.05;96137.84;4987344;28;20027;-80
2022/10/12 05:58:22;;;;;;;31.00;19.02;;;;;;;14.13;72.21;96128.97;4952877;28;20419;-80
2022/10/12 06:00:48;;;;;;;36.40;19.17;;;;;;;14.10;72.07;96140.97;4969015;28;20030;-79
2022/10/12 06:03:13;;;;;;;32.67;18.98;;;;;;;14.12;72.10;96133.53;4985940;28;20027;-80
2022/10/12 06:05:38;;;;;;;29.48;18.17;;;;;;;14.12;72.25;96140.78;4969139;28;20034;-81
2022/10/12 06:08:04;;;;;;;29.85;20.58;;;;;;;14.12;72.29;96136.22;4969044;28;20023;-80
2022/10/12 06:10:29;;;;;;;30.67;18.55;;;;;;;14.17;71.96;96147.28;4969090;28;20026;-80
2022/10/12 06:12:55;;;;;;;30.58;18.45;;;;;;;14.18;72.33;96143.59;4986282;28;20030;-81
2022/10/12 06:15:20;;;;;;;47.35;20.73;;;;;;;14.24;71.82;96146.56;4968749;28;20030;-79
2022/10/12 06:17:46;;;;;;;33.05;17.95;;;;;;;14.26;71.53;96145.38;4986585;28;20081;-79
2022/10/12 06:20:11;;;;;;;27.83;17.33;;;;;;;14.29;71.25;96149.56;4968408;28;20033;-79
2022/10/12 06:22:37;;;;;;;28.67;17.40;;;;;;;14.32;71.25;96146.50;4986518;28;20045;-80
2022/10/12 06:25:02;;;;;;;27.67;17.25;;;;;;;14.05;71.91;96148.75;4968307;28;20030;-80
2022/10/12 06:27:28;;;;;;;26.15;16.10;;;;;;;14.23;71.12;96145.75;4952942;28;20030;-81
2022/10/12 06:29:53;;;;;;;25.88;16.73;;;;;;;14.21;71.47;96151.31;4968756;28;20030;-81
2022/10/12 06:32:19;;;;;;;28.13;18.20;;;;;;;14.12;71.71;96155.13;4985942;28;20030;-80
2022/10/12 06:34:45;;;;;;;31.83;19.23;;;;;;;14.07;71.89;96163.72;4968886;28;20031;-80
2022/10/12 06:37:10;;;;;;;27.67;18.98;;;;;;;14.07;72.26;96160.22;4985950;28;20030;-80
2022/10/12 06:39:36;;;;;;;30.50;19.38;;;;;;;14.16;72.09;96169.06;4968822;28;20077;-80
2022/10/12 06:42:01;;;;;;;30.80;19.92;;;;;;;14.11;72.37;96163.34;4985916;28;20022;-80
2022/10/12 06:44:27;;;;;;;35.88;19.95;;;;;;;14.20;71.96;96171.19;4985862;28;20037;-80
2022/10/12 06:46:52;;;;;;;31.60;19.73;;;;;;;14.24;72.13;96173.53;4985909;28;20026;-80
2022/10/12 06:49:18;;;;;;;29.63;19.85;;;;;;;14.28;71.81;96170.28;4968343;28;20038;-80
2022/10/12 06:51:43;;;;;;;30.20;20.10;;;;;;;14.36;71.74;96166.69;4968514;28;20120;-80
2022/10/12 06:54:08;;;;;;;27.48;18.77;;;;;;;14.41;71.63;96164.28;4968331;28;20030;-79
2022/10/12 06:56:34;;;;;;;32.15;19.02;;;;;;;14.32;71.66;96162.69;4968942;28;20058;-81
2022/10/12 06:58:59;;;;;;;27.30;18.20;;;;;;;14.43;71.17;96167.63;4968335;28;20495;-80
2022/10/12 07:01:25;;;;;;;31.80;19.50;;;;;;;14.49;71.25;96167.94;4968378;28;20469;-79
2022/10/12 07:03:50;;;;;;;30.77;19.75;;;;;;;14.50;71.01;96170.44;4968122;28;20527;-80
2022/10/12 07:06:16;;;;;;;28.60;18.80;;;;;;;14.52;71.16;96181.06;4985932;28;20053;-80
2022/10/12 07:08:41;;;;;;;29.40;18.90;;;;;;;14.50;71.14;96175.84;4952419;28;20121;-80
2022/10/12 07:11:08;;;;;;;28.13;18.00;;;;;;;14.59;71.00;96177.44;4968882;28;20026;-80
2022/10/12 07:13:34;;;;;;;25.20;16.88;;;;;;;14.60;71.35;96178.28;4952577;28;20053;-80
2022/10/12 07:15:59;;;;;;;25.15;17.75;;;;;;;14.57;71.20;96170.56;4952249;28;20529;-81
2022/10/12 07:18:25;;;;;;;27.80;17.08;;;;;;;14.58;70.92;96173.06;4985818;28;20026;-80
2022/10/12 07:20:50;;;;;;;23.23;16.48;;;;;;;14.59;71.04;96173.88;4985522;28;20076;-81
2022/10/12 07:23:16;;;;;;;23.42;15.23;;;;;;;14.56;70.89;96176.97;4953087;28;20049;-80
2022/10/12 07:25:48;;;;;;;30.23;16.95;;;;;;;14.21;71.69;96169.34;4955541;28;20122;-80
2022/10/12 07:28:14;;;;;;;;;;;;;;;14.29;71.72;96171.13;4990085;28;20035;-80
2022/10/12 07:30:40;;;;;;;26.77;16.35;;;;;;;14.17;72.05;96176.97;4989280;28;19921;-80
2022/10/12 07:33:05;;;;;;;26.00;16.67;;;;;;;14.30;71.66;96170.97;4989184;28;20050;-80
2022/10/12 07:35:30;;;;;;;24.40;14.88;;;;;;;14.36;71.44;96172.09;4989524;28;20030;-80
2022/10/12 07:37:56;;;;;;;24.00;15.90;;;;;;;14.54;70.69;96179.03;4971421;28;20437;-79
2022/10/12 07:40:21;;;;;;;25.15;15.13;;;;;;;14.57;70.57;96175.94;4988997;28;20034;-80
2022/10/12 07:42:47;;;;;;;24.48;16.20;;;;;;;14.58;70.48;96183.00;4971352;28;20126;-81
2022/10/12 07:45:12;;;;;;;24.05;16.70;;;;;;;14.59;70.42;96181.97;4989082;28;20034;-80
2022/10/12 07:47:37;;;;;;;25.15;16.25;;;;;;;14.70;70.08;96188.81;4988546;28;20027;-80
2022/10/12 07:50:03;;;;;;;28.85;16.73;;;;;;;14.76;70.05;96189.94;4988917;28;20034;-80
2022/10/12 07:52:31;;;;;;;24.48;16.10;;;;;;;14.68;70.63;96188.16;4988816;28;20440;-80
2022/10/12 07:54:56;;;;;;;26.65;15.55;;;;;;;14.73;70.19;96183.03;4971285;28;20502;-80
2022/10/12 07:57:22;;;;;;;26.20;15.88;;;;;;;14.82;70.14;96181.13;4971731;28;20023;-81
2022/10/12 07:59:47;;;;;;;26.10;15.88;;;;;;;14.85;70.77;96191.53;4994404;28;20017;-81
2022/10/12 08:02:12;;;;;;;20.80;15.10;;;;;;;14.89;70.51;96189.31;5008021;28;20026;-81
2022/10/12 08:04:38;;;;;;;20.05;15.02;;;;;;;14.92;70.94;96181.69;4988424;28;20524;-82
2022/10/12 08:07:03;;;;;;;22.80;15.02;;;;;;;14.99;71.12;96186.34;5006965;28;20536;-81
2022/10/12 08:09:29;;;;;;;21.85;14.50;;;;;;;15.03;70.49;96183.09;4986649;28;20396;-80
2022/10/12 08:11:55;;;;;;;24.55;15.52;;;;;;;15.11;69.94;96184.84;4997949;28;20022;-81
2022/10/12 08:14:20;;;;;;;22.90;14.73;;;;;;;15.09;69.54;96181.47;4997814;28;20034;-82
2022/10/12 08:16:46;;;;;;;24.88;15.38;;;;;;;15.14;69.39;96183.63;5002162;28;20032;-81
2022/10/12 08:19:11;;;;;;;23.77;14.40;;;;;;;15.14;69.49;96178.22;4974448;28;20436;-82
2022/10/12 08:21:37;;;;;;;23.08;14.70;;;;;;;15.13;69.49;96180.09;4973695;28;20026;-80
2022/10/12 08:24:02;;;;;;;24.45;15.35;;;;;;;15.11;69.65;96179.44;5008068;28;20034;-84
2022/10/12 08:26:29;;;;;;;23.30;15.13;;;;;;;15.26;69.26;96181.28;5007663;28;20072;-82
2022/10/12 08:28:54;;;;;;;28.10;14.93;;;;;;;15.38;68.84;96177.06;4990142;28;20056;-80
2022/10/12 08:31:19;;;;;;;22.30;15.07;;;;;;;15.33;69.29;96176.81;4990445;28;20025;-80
2022/10/12 08:33:45;;;;;;;21.60;15.15;;;;;;;15.51;68.67;96176.41;4989661;28;20049;-80
2022/10/12 08:36:11;;;;;;;24.77;15.85;;;;;;;15.42;68.48;96175.69;5007892;28;20033;-79
2022/10/12 08:38:39;;;;;;;26.23;15.68;;;;;;;15.40;68.03;96172.31;4973344;28;20030;-83
2022/10/12 08:42:02;;;;;;;22.05;15.27;;;;;;;15.57;67.58;96180.22;5007962;28;20036;-85
2022/10/12 08:44:42;;;;;;;23.73;14.48;;;;;;;15.51;67.94;96175.56;4908767;29;20084;-82
2022/10/12 08:47:17;;;;;;;26.90;16.75;;;;;;;15.49;67.93;96173.06;4908505;29;20568;-81
2022/10/12 08:49:43;;;;;;;23.58;16.27;;;;;;;15.51;68.06;96175.56;4937726;28;20038;-76
2022/10/12 08:52:33;;;;;;;26.33;17.38;;;;;;;15.47;68.28;96172.41;4973180;28;20049;-77
2022/10/12 08:55:02;;;;;;;25.27;17.45;;;;;;;15.56;67.88;96171.25;4975066;28;20057;-78
2022/10/12 08:57:28;;;;;;;25.15;15.90;;;;;;;15.55;68.00;96171.44;4990330;28;20539;-76
2022/10/12 08:59:53;;;;;;;25.02;15.25;;;;;;;15.79;67.20;96170.28;4989288;28;20496;-77
2022/10/12 09:02:30;;;;;;;25.05;15.27;;;;;;;15.78;67.40;96163.16;5007596;28;20481;-76
2022/10/12 09:05:00;;;;;;;20.38;14.57;;;;;;;15.86;67.47;96167.63;5006390;28;20036;-75
2022/10/12 09:07:27;;;;;;;20.73;14.55;;;;;;;15.83;66.62;96170.69;4973863;28;20026;-76
2022/10/12 09:10:30;;;;;;;22.77;14.10;;;;;;;15.73;66.96;96170.19;4973278;28;20420;-76
2022/10/12 09:13:01;;;;;;;;;;;;;;;15.64;67.10;96178.41;5007422;28;20037;-74
2022/10/12 09:15:38;;;;;;;21.40;12.90;;;;;;;15.56;67.58;96163.16;4989681;28;19913;-76
2022/10/12 09:18:09;;;;;;;19.67;12.75;;;;;;;15.65;67.57;96169.25;4972939;28;20110;-76
2022/10/12 09:20:49;;;;;;;22.50;12.95;;;;;;;15.86;67.26;96164.09;4967933;28;20018;-77
2022/10/12 09:23:24;;;;;;;20.90;13.43;;;;;;;15.84;66.87;96166.97;4974579;28;20033;-77
2022/10/12 09:25:53;;;;;;;23.88;13.73;;;;;;;15.88;66.67;96167.44;4988775;28;20061;-77
2022/10/12 09:28:48;;;;;;;21.60;12.10;;;;;;;15.78;66.90;96168.56;4989435;28;20022;-76
2022/10/12 09:31:26;;;;;;;16.77;12.52;;;;;;;15.81;67.35;96167.38;4981503;28;20042;-77
2022/10/12 09:33:58;;;;;;;23.33;12.60;;;;;;;15.78;66.85;96173.97;5006528;28;20037;-77
2022/10/12 09:36:25;;;;;;;25.48;14.02;;;;;;;15.74;66.97;96170.00;4989471;28;20022;-77
2022/10/12 09:38:51;;;;;;;23.13;13.30;;;;;;;15.68;67.64;96171.63;4972777;28;20030;-77
2022/10/12 09:41:21;;;;;;;20.15;11.85;;;;;;;15.73;68.07;96175.59;4972797;28;20033;-77
2022/10/12 09:43:49;;;;;;;15.23;11.82;;;;;;;15.63;67.10;96173.19;4988669;28;20022;-80
2022/10/12 09:46:14;;;;;;;16.02;11.70;;;;;;;15.68;67.18;96168.91;4972127;28;20504;-79
2022/10/12 09:48:55;;;;;;;15.88;10.60;;;;;;;15.68;66.88;96168.91;4972495;28;20033;-79
2022/10/12 09:51:20;;;;;;;17.42;9.75;;;;;;;15.66;67.06;96170.97;4985543;28;20103;-78
2022/10/12 09:53:47;;;;;;;17.52;11.40;;;;;;;15.88;66.76;96162.03;4961842;28;20023;-78
2022/10/12 09:56:22;;;;;;;18.63;11.60;;;;;;;15.91;67.00;96165.16;4953287;28;20088;-77
2022/10/12 09:58:53;;;;;;;27.05;12.18;;;;;;;15.90;66.97;96166.22;4951876;28;20034;-77
2022/10/12 10:01:22;;;;;;;18.85;12.02;;;;;;;15.93;67.22;96171.22;4946283;28;20021;-77
2022/10/12 10:03:50;;;;;;;17.17;12.50;;;;;;;15.97;67.11;96165.44;4965868;28;20030;-79
2022/10/12 10:06:21;;;;;;;18.95;12.07;;;;;;;16.05;66.99;96163.47;4953552;28;20037;-78
2022/10/12 10:08:47;;;;;;;21.25;13.05;;;;;;;16.21;66.02;96158.81;4952930;28;20405;-78
2022/10/12 10:11:22;;;;;;;20.08;12.50;;;;;;;16.09;65.66;96153.09;4969067;28;20058;-78
2022/10/12 10:13:50;;;;;;;28.20;12.48;;;;;;;16.08;65.69;96151.44;4970343;28;20065;-80
2022/10/12 10:16:16;;;;;;;20.83;13.43;;;;;;;16.12;65.79;96154.59;4967883;28;20038;-76
2022/10/12 10:18:43;;;;;;;17.90;12.57;;;;;;;16.16;65.65;96153.16;4969875;28;20029;-78
2022/10/12 10:21:10;;;;;;;18.38;12.30;;;;;;;16.10;66.06;96149.38;4988677;28;20074;-80
2022/10/12 10:23:43;;;;;;;20.33;13.32;;;;;;;16.09;65.27;96153.09;4972590;28;20107;-79
2022/10/12 10:26:09;;;;;;;17.45;12.25;;;;;;;16.09;64.60;96147.69;4971999;28;20108;-79
2022/10/12 10:28:36;;;;;;;22.27;13.00;;;;;;;16.05;64.76;96144.53;4988582;28;20022;-79
2022/10/12 10:31:06;;;;;;;18.42;11.88;;;;;;;16.08;64.66;96140.59;4988294;28;20034;-80
2022/10/12 10:33:34;;;;;;;19.90;12.55;;;;;;;16.10;64.21;96140.41;4988202;28;20030;-77
2022/10/12 10:36:19;;;;;;;17.80;12.30;;;;;;;16.01;65.25;96139.72;4971752;28;20108;-79
2022/10/12 10:38:47;;;;;;;19.30;11.80;;;;;;;16.08;65.54;96134.34;5005835;28;20026;-79
2022/10/12 10:41:13;;;;;;;21.17;12.35;;;;;;;16.09;65.13;96134.16;5005984;28;20037;-79
2022/10/12 10:43:38;;;;;;;17.27;12.02;;;;;;;16.09;65.46;96130.63;4972179;28;20053;-79
2022/10/12 10:46:04;;;;;;;18.27;12.00;;;;;;;16.08;64.64;96129.78;4972205;28;20096;-78
2022/10/12 10:48:57;;;;;;;20.40;11.70;;;;;;;16.00;64.90;96122.63;4974348;28;20058;-80
2022/10/12 10:51:53;;;;;;;21.25;12.35;;;;;;;15.97;65.62;96122.16;4953991;28;20081;-79
2022/10/12 10:54:22;;;;;;;20.10;12.43;;;;;;;15.92;65.64;96118.19;4968877;28;20034;-78
2022/10/12 10:56:51;;;;;;;17.45;11.25;;;;;;;15.98;65.64;96121.13;4985885;28;20468;-80
2022/10/12 10:59:32;;;;;;;18.55;12.05;;;;;;;16.00;64.83;96122.63;4971071;28;20037;-79
2022/10/12 11:02:00;;;;;;;18.30;11.52;;;;;;;16.01;65.79;96124.31;4956570;28;20109;-79
2022/10/12 11:04:32;;;;;;;18.98;11.95;;;;;;;16.07;64.53;96117.28;4956260;28;20040;-78
2022/10/12 11:07:00;;;;;;;20.17;11.97;;;;;;;16.07;64.81;96114.59;4956416;28;20026;-78
2022/10/12 11:09:30;;;;;;;19.08;12.18;;;;;;;16.09;64.79;96112.50;4955955;28;20026;-79
2022/10/12 11:12:11;;;;;;;19.38;11.63;;;;;;;16.07;64.89;96106.47;4973004;28;20040;-78
2022/10/12 11:14:54;;;;;;;18.48;11.95;;;;;;;16.05;65.23;96111.22;4956855;28;20022;-79
2022/10/12 11:17:28;;;;;;;19.00;12.20;;;;;;;16.11;64.96;96107.75;4943901;28;20045;-78
2022/10/12 11:20:05;;;;;;;20.27;12.77;;;;;;;16.12;64.85;96106.69;4970706;28;20447;-77
2022/10/12 11:22:45;;;;;;;17.58;11.93;;;;;;;16.17;64.62;96103.41;5008157;28;20578;-77